sensor_id;sensor_type;location;lat;lon;timestamp;pressure;altitude;pressure_sealevel;temperature;humidity
11302;BME280;5706;50.650;13.380;2023-04-01T09:29:02;90588.09;;;-140.63;61.13
11302;BME280;5706;50.650;13.380;2023-04-01T09:34:52;90614.22;;;-140.63;60.50
11302;BME280;5706;50.650;13.380;2023-04-01T09:37:32;90608.19;;;-140.63;58.41
11302;BME280;5706;50.650;13.380;2023-04-01T09:40:15;90419.41;;;-140.63;59.41
11302;BME280;5706;50.650;13.380;2023-04-01T09:42:49;90232.66;;;-140.63;55.76
11302;BME280;5706;50.650;13.380;2023-04-01T09:45:44;90182.47;;;-140.63;49.68
11302;BME280;5706;50.650;13.380;2023-04-01T09:48:45;90001.75;;;-140.63;46.45
11302;BME280;5706;50.650;13.380;2023-04-01T09:51:37;90041.91;;;-140.63;46.97
11302;BME280;5706;50.650;13.380;2023-04-01T09:54:31;89827.06;;;-140.63;44.25
11302;BME280;5706;50.650;13.380;2023-04-01T10:00:45;90164.38;;;-140.63;49.38
11302;BME280;5706;50.650;13.380;2023-04-01T10:03:37;90244.72;;;-140.63;51.29
11302;BME280;5706;50.650;13.380;2023-04-01T10:07:05;90447.53;;;-140.63;54.87
11302;BME280;5706;50.650;13.380;2023-04-01T10:17:25;90347.13;;;-140.63;52.97
11302;BME280;5706;50.650;13.380;2023-04-01T10:20:51;90306.97;;;-140.63;51.68
11302;BME280;5706;50.650;13.380;2023-04-01T10:23:50;90367.19;;;-140.63;50.53
11302;BME280;5706;50.650;13.380;2023-04-01T10:27:02;90385.28;;;-140.63;51.62
11302;BME280;5706;50.650;13.380;2023-04-01T10:33:39;90315.00;;;-140.63;49.93
11302;BME280;5706;50.650;13.380;2023-04-01T10:36:48;90323.03;;;-140.63;52.84
11302;BME280;5706;50.650;13.380;2023-04-01T10:39:37;90395.31;;;-140.63;53.64
11302;BME280;5706;50.650;13.380;2023-04-01T10:42:53;90080.06;;;-140.63;50.00
11302;BME280;5706;50.650;13.380;2023-04-01T10:45:59;90029.84;;;-140.63;46.85
11302;BME280;5706;50.650;13.380;2023-04-01T10:49:34;90176.44;;;-140.63;46.80
11302;BME280;5706;50.650;13.380;2023-04-01T10:52:30;90351.13;;;-140.63;48.18
11302;BME280;5706;50.650;13.380;2023-04-01T10:55:32;90128.25;;;-140.63;48.24
11302;BME280;5706;50.650;13.380;2023-04-01T11:01:29;90319.00;;;-140.63;49.95
11302;BME280;5706;50.650;13.380;2023-04-01T11:22:13;90381.25;;;-140.63;49.66
11302;BME280;5706;50.650;13.380;2023-04-01T11:25:16;90451.53;;;-140.63;51.29
11302;BME280;5706;50.650;13.380;2023-04-01T11:31:32;90493.72;;;-140.63;52.04
11302;BME280;5706;50.650;13.380;2023-04-01T11:34:16;90485.69;;;-140.63;52.61
11302;BME280;5706;50.650;13.380;2023-04-01T11:37:09;90545.94;;;-140.63;53.87
11302;BME280;5706;50.650;13.380;2023-04-01T11:39:58;90586.09;;;-140.63;56.87
11302;BME280;5706;50.650;13.380;2023-04-01T11:42:42;90608.19;;;-140.63;56.68
11302;BME280;5706;50.650;13.380;2023-04-01T11:45:25;90636.28;;;-140.63;56.04
11302;BME280;5706;50.650;13.380;2023-04-01T11:48:29;90620.22;;;-140.63;56.72
11302;BME280;5706;50.650;13.380;2023-04-01T11:54:23;90555.97;;;-140.63;56.37
11302;BME280;5706;50.650;13.380;2023-04-01T11:57:12;90479.66;;;-140.63;54.45
11302;BME280;5706;50.650;13.380;2023-04-01T12:03:26;90463.59;;;-140.63;55.10
11302;BME280;5706;50.650;13.380;2023-04-01T12:06:14;90483.69;;;-140.63;55.22
11302;BME280;5706;50.650;13.380;2023-04-01T12:08:54;90461.59;;;-140.63;53.96
11302;BME280;5706;50.650;13.380;2023-04-01T12:11:36;90355.16;;;-140.63;53.23
11302;BME280;5706;50.650;13.380;2023-04-01T12:14:16;90319.00;;;-140.63;52.00
11302;BME280;5706;50.650;13.380;2023-04-01T12:16:59;90371.22;;;-140.63;51.47
11302;BME280;5706;50.650;13.380;2023-04-01T12:19:40;90493.72;;;-140.63;55.31
11302;BME280;5706;50.650;13.380;2023-04-01T12:22:27;90503.75;;;-140.63;56.48
11302;BME280;5706;50.650;13.380;2023-04-01T12:25:14;90423.44;;;-140.63;54.70
11302;BME280;5706;50.650;13.380;2023-04-01T12:28:06;90533.88;;;-140.63;58.49
11302;BME280;5706;50.650;13.380;2023-04-01T12:30:51;90582.06;;;-140.63;57.87
11302;BME280;5706;50.650;13.380;2023-04-01T12:33:37;90566.00;;;-140.63;60.07
11302;BME280;5706;50.650;13.380;2023-04-01T12:36:30;90616.22;;;-140.63;61.02
11302;BME280;5706;50.650;13.380;2023-04-01T12:39:27;90620.22;;;-140.63;62.34
11302;BME280;5706;50.650;13.380;2023-04-01T12:42:16;90660.41;;;-140.63;62.25
11302;BME280;5706;50.650;13.380;2023-04-01T12:45:04;90668.44;;;-140.63;61.71
11302;BME280;5706;50.650;13.380;2023-04-01T12:54:35;90580.06;;;-140.63;60.18
11302;BME280;5706;50.650;13.380;2023-04-01T12:57:38;90531.88;;;-140.63;62.46
11302;BME280;5706;50.650;13.380;2023-04-01T13:04:35;90531.88;;;-140.63;58.90
11302;BME280;5706;50.650;13.380;2023-04-01T13:07:39;90435.47;;;-140.63;58.45
11302;BME280;5706;50.650;13.380;2023-04-01T13:10:20;90433.47;;;-140.63;56.86
11302;BME280;5706;50.650;13.380;2023-04-01T13:13:25;90421.41;;;-140.63;56.97
11302;BME280;5706;50.650;13.380;2023-04-01T13:16:20;90403.34;;;-140.63;56.18
11302;BME280;5706;50.650;13.380;2023-04-01T13:18:58;90411.38;;;-140.63;56.55
11302;BME280;5706;50.650;13.380;2023-04-01T13:21:47;90407.38;;;-140.63;53.07
11302;BME280;5706;50.650;13.380;2023-04-01T13:24:39;90367.19;;;-140.63;53.11
11302;BME280;5706;50.650;13.380;2023-04-01T13:27:16;90407.38;;;-140.63;54.01
11302;BME280;5706;50.650;13.380;2023-04-01T13:29:59;90443.50;;;-140.63;53.43
11302;BME280;5706;50.650;13.380;2023-04-01T13:32:43;90431.47;;;-140.63;53.26
11302;BME280;5706;50.650;13.380;2023-04-01T13:35:31;90461.59;;;-140.63;53.74
11302;BME280;5706;50.650;13.380;2023-04-01T13:38:20;90533.88;;;-140.63;54.86
11302;BME280;5706;50.650;13.380;2023-04-01T13:41:19;90511.78;;;-140.63;53.19
11302;BME280;5706;50.650;13.380;2023-04-01T13:43:59;90588.09;;;-140.63;58.01
11302;BME280;5706;50.650;13.380;2023-04-01T13:46:47;90584.09;;;-140.63;57.21
11302;BME280;5706;50.650;13.380;2023-04-01T13:50:05;90626.25;;;-140.63;59.63
11302;BME280;5706;50.650;13.380;2023-04-01T13:56:23;90588.09;;;-140.63;61.97
11302;BME280;5706;50.650;13.380;2023-04-01T14:02:33;90608.19;;;-140.63;60.46
11302;BME280;5706;50.650;13.380;2023-04-01T14:05:32;90666.41;;;-140.63;59.10
11302;BME280;5706;50.650;13.380;2023-04-01T14:08:17;90676.47;;;-140.63;58.98
11302;BME280;5706;50.650;13.380;2023-04-01T14:11:07;90648.34;;;-140.63;57.54
11302;BME280;5706;50.650;13.380;2023-04-01T14:13:50;90700.56;;;-140.63;59.83
11302;BME280;5706;50.650;13.380;2023-04-01T14:16:47;90672.44;;;-140.63;58.10
11302;BME280;5706;50.650;13.380;2023-04-01T14:19:43;90564.00;;;-140.63;58.45
11302;BME280;5706;50.650;13.380;2023-04-01T14:22:38;90656.38;;;-140.63;56.60
11302;BME280;5706;50.650;13.380;2023-04-01T14:28:51;90708.59;;;-140.63;59.25
11302;BME280;5706;50.650;13.380;2023-04-01T14:31:44;90714.63;;;-140.63;60.67
11302;BME280;5706;50.650;13.380;2023-04-01T14:34:31;90722.66;;;-140.63;61.48
11302;BME280;5706;50.650;13.380;2023-04-01T14:37:23;90734.69;;;-140.63;62.42
11302;BME280;5706;50.650;13.380;2023-04-01T14:40:24;90722.66;;;-140.63;63.95
11302;BME280;5706;50.650;13.380;2023-04-01T14:43:22;90762.81;;;-140.63;63.34
11302;BME280;5706;50.650;13.380;2023-04-01T14:46:17;90778.88;;;-140.63;64.67
11302;BME280;5706;50.650;13.380;2023-04-01T14:49:20;90752.78;;;-140.63;66.91
11302;BME280;5706;50.650;13.380;2023-04-01T14:51:52;90887.34;;;-140.63;67.03
11302;BME280;5706;50.650;13.380;2023-04-01T14:54:31;90784.91;;;-140.63;66.94
11302;BME280;5706;50.650;13.380;2023-04-01T14:57:09;90800.97;;;-140.63;67.39
11302;BME280;5706;50.650;13.380;2023-04-01T14:59:40;90778.88;;;-140.63;68.29
11302;BME280;5706;50.650;13.380;2023-04-01T15:02:32;90772.88;;;-140.63;67.91
11302;BME280;5706;50.650;13.380;2023-04-01T15:05:24;90666.41;;;-140.63;68.23
11302;BME280;5706;50.650;13.380;2023-04-01T15:08:16;90726.66;;;-140.63;66.93
11302;BME280;5706;50.650;13.380;2023-04-01T15:14:31;90710.59;;;-140.63;67.21
11302;BME280;5706;50.650;13.380;2023-04-01T15:17:43;90710.59;;;-140.63;66.51
11302;BME280;5706;50.650;13.380;2023-04-01T15:20:44;90668.44;;;-140.63;66.97
11302;BME280;5706;50.650;13.380;2023-04-01T15:23:34;90692.53;;;-140.63;67.76
11302;BME280;5706;50.650;13.380;2023-04-01T15:26:21;90672.44;;;-140.63;66.77
11302;BME280;5706;50.650;13.380;2023-04-01T15:29:18;90716.63;;;-140.63;68.59
11302;BME280;5706;50.650;13.380;2023-04-01T15:32:17;90716.63;;;-140.63;68.19
11302;BME280;5706;50.650;13.380;2023-04-01T15:34:55;90674.47;;;-140.63;68.18
11302;BME280;5706;50.650;13.380;2023-04-01T15:37:36;90796.97;;;-140.63;69.23
11302;BME280;5706;50.650;13.380;2023-04-01T15:40:19;90672.44;;;-140.63;69.63
11302;BME280;5706;50.650;13.380;2023-04-01T15:43:01;90716.63;;;-140.63;69.79
11302;BME280;5706;50.650;13.380;2023-04-01T15:45:46;90688.50;;;-140.63;67.22
11302;BME280;5706;50.650;13.380;2023-04-01T15:48:33;90656.38;;;-140.63;68.12
11302;BME280;5706;50.650;13.380;2023-04-01T15:51:39;90672.44;;;-140.63;66.00
11302;BME280;5706;50.650;13.380;2023-04-01T15:54:40;90650.34;;;-140.63;66.93
11302;BME280;5706;50.650;13.380;2023-04-01T15:57:44;90628.25;;;-140.63;64.67
11302;BME280;5706;50.650;13.380;2023-04-01T16:00:28;90656.38;;;-140.63;63.87
11302;BME280;5706;50.650;13.380;2023-04-01T16:03:18;90612.19;;;-140.63;61.69
11302;BME280;5706;50.650;13.380;2023-04-01T16:06:12;90608.19;;;-140.63;59.15
11302;BME280;5706;50.650;13.380;2023-04-01T16:09:15;90672.44;;;-140.63;59.26
11302;BME280;5706;50.650;13.380;2023-04-01T16:12:16;90690.53;;;-140.63;59.65
11302;BME280;5706;50.650;13.380;2023-04-01T16:15:01;90642.31;;;-140.63;59.03
11302;BME280;5706;50.650;13.380;2023-04-01T16:17:54;90692.53;;;-140.63;60.32
11302;BME280;5706;50.650;13.380;2023-04-01T16:20:43;90710.59;;;-140.63;60.81
11302;BME280;5706;50.650;13.380;2023-04-01T16:23:20;90688.50;;;-140.63;62.21
11302;BME280;5706;50.650;13.380;2023-04-01T16:26:01;90742.75;;;-140.63;62.69
11302;BME280;5706;50.650;13.380;2023-04-01T16:28:38;90780.91;;;-140.63;61.91
11302;BME280;5706;50.650;13.380;2023-04-01T16:31:27;90734.69;;;-140.63;62.19
11302;BME280;5706;50.650;13.380;2023-04-01T16:34:07;90776.88;;;-140.63;62.01
11302;BME280;5706;50.650;13.380;2023-04-01T16:36:43;90768.84;;;-140.63;62.29
11302;BME280;5706;50.650;13.380;2023-04-01T16:39:30;90764.81;;;-140.63;62.69
11302;BME280;5706;50.650;13.380;2023-04-01T16:42:20;90776.88;;;-140.63;62.31
11302;BME280;5706;50.650;13.380;2023-04-01T16:44:55;90833.13;;;-140.63;63.37
11302;BME280;5706;50.650;13.380;2023-04-01T16:47:30;90772.88;;;-140.63;63.44
11302;BME280;5706;50.650;13.380;2023-04-01T16:50:13;90772.88;;;-140.63;62.72
11302;BME280;5706;50.650;13.380;2023-04-01T16:52:58;90803.00;;;-140.63;63.45
11302;BME280;5706;50.650;13.380;2023-04-01T16:55:43;90807.00;;;-140.63;63.56
11302;BME280;5706;50.650;13.380;2023-04-01T16:58:22;90762.81;;;-140.63;63.64
11302;BME280;5706;50.650;13.380;2023-04-01T17:00:55;90778.88;;;-140.63;63.87
11302;BME280;5706;50.650;13.380;2023-04-01T17:03:32;90776.88;;;-140.63;64.08
11302;BME280;5706;50.650;13.380;2023-04-01T17:06:16;90800.97;;;-140.63;63.72
11302;BME280;5706;50.650;13.380;2023-04-01T17:09:01;90807.00;;;-140.63;64.41
11302;BME280;5706;50.650;13.380;2023-04-01T17:11:49;90817.03;;;-140.63;64.50
11302;BME280;5706;50.650;13.380;2023-04-01T17:14:28;90811.03;;;-140.63;65.04
11302;BME280;5706;50.650;13.380;2023-04-01T17:17:13;90805.00;;;-140.63;65.50
11302;BME280;5706;50.650;13.380;2023-04-01T17:23:13;90788.94;;;-140.63;65.93
11302;BME280;5706;50.650;13.380;2023-04-01T17:26:02;90845.16;;;-140.63;65.65
11302;BME280;5706;50.650;13.380;2023-04-01T17:28:46;90841.16;;;-140.63;66.67
11302;BME280;5706;50.650;13.380;2023-04-01T17:31:26;90865.25;;;-140.63;67.16
11302;BME280;5706;50.650;13.380;2023-04-01T17:34:23;90825.06;;;-140.63;68.20
11302;BME280;5706;50.650;13.380;2023-04-01T17:37:10;90867.25;;;-140.63;68.41
11302;BME280;5706;50.650;13.380;2023-04-01T17:40:06;90843.16;;;-140.63;68.58
11302;BME280;5706;50.650;13.380;2023-04-01T17:42:54;90847.16;;;-140.63;69.75
11302;BME280;5706;50.650;13.380;2023-04-01T17:45:38;90871.28;;;-140.63;70.26
11302;BME280;5706;50.650;13.380;2023-04-01T17:48:18;90945.59;;;-140.63;70.57
11302;BME280;5706;50.650;13.380;2023-04-01T17:51:03;90921.47;;;-140.63;71.33
11302;BME280;5706;50.650;13.380;2023-04-01T17:53:43;90915.47;;;-140.63;71.71
11302;BME280;5706;50.650;13.380;2023-04-01T17:56:25;90895.38;;;-140.63;72.29
11302;BME280;5706;50.650;13.380;2023-04-01T17:59:10;90907.44;;;-140.63;71.83
11302;BME280;5706;50.650;13.380;2023-04-01T18:02:03;90851.19;;;-140.63;72.71
11302;BME280;5706;50.650;13.380;2023-04-01T18:05:20;90921.47;;;-140.63;73.43
11302;BME280;5706;50.650;13.380;2023-04-01T18:08:02;90925.50;;;-140.63;73.15
11302;BME280;5706;50.650;13.380;2023-04-01T18:10:48;90893.38;;;-140.63;74.49
11302;BME280;5706;50.650;13.380;2023-04-01T18:13:46;90925.50;;;-140.63;73.76
11302;BME280;5706;50.650;13.380;2023-04-01T18:16:39;90885.34;;;-140.63;74.24
11302;BME280;5706;50.650;13.380;2023-04-01T18:19:26;90921.47;;;-140.63;74.65
11302;BME280;5706;50.650;13.380;2023-04-01T18:22:09;90915.47;;;-140.63;74.98
11302;BME280;5706;50.650;13.380;2023-04-01T18:24:49;90927.50;;;-140.63;75.85
11302;BME280;5706;50.650;13.380;2023-04-01T18:27:24;90941.56;;;-140.63;76.08
11302;BME280;5706;50.650;13.380;2023-04-01T18:30:03;90913.44;;;-140.63;77.04
11302;BME280;5706;50.650;13.380;2023-04-01T18:32:44;90945.59;;;-140.63;78.57
11302;BME280;5706;50.650;13.380;2023-04-01T18:35:27;90963.66;;;-140.63;80.90
11302;BME280;5706;50.650;13.380;2023-04-01T18:38:03;90945.59;;;-140.63;81.43
11302;BME280;5706;50.650;13.380;2023-04-01T18:40:42;90945.59;;;-140.63;81.26
11302;BME280;5706;50.650;13.380;2023-04-01T18:43:22;90935.53;;;-140.63;81.04
11302;BME280;5706;50.650;13.380;2023-04-01T18:46:08;90925.50;;;-140.63;81.63
11302;BME280;5706;50.650;13.380;2023-04-01T18:48:51;90937.56;;;-140.63;80.63
11302;BME280;5706;50.650;13.380;2023-04-01T18:51:32;90955.63;;;-140.63;80.98
11302;BME280;5706;50.650;13.380;2023-04-01T18:54:10;90961.66;;;-140.63;81.64
11302;BME280;5706;50.650;13.380;2023-04-01T18:56:43;91001.81;;;-140.63;81.50
11302;BME280;5706;50.650;13.380;2023-04-01T18:59:16;90975.72;;;-140.63;81.01
11302;BME280;5706;50.650;13.380;2023-04-01T19:02:00;90971.69;;;-140.63;80.84
11302;BME280;5706;50.650;13.380;2023-04-01T19:04:37;90953.63;;;-140.63;81.03
11302;BME280;5706;50.650;13.380;2023-04-01T19:07:39;90987.75;;;-140.63;80.18
11302;BME280;5706;50.650;13.380;2023-04-01T19:10:31;90979.72;;;-140.63;80.36
11302;BME280;5706;50.650;13.380;2023-04-01T19:13:14;90959.66;;;-140.63;79.38
11302;BME280;5706;50.650;13.380;2023-04-01T19:15:56;90991.78;;;-140.63;78.66
11302;BME280;5706;50.650;13.380;2023-04-01T19:19:05;90965.66;;;-140.63;80.76
11302;BME280;5706;50.650;13.380;2023-04-01T19:21:48;91001.81;;;-140.63;78.93
11302;BME280;5706;50.650;13.380;2023-04-01T19:24:41;90951.59;;;-140.63;76.65
11302;BME280;5706;50.650;13.380;2023-04-01T19:27:27;91021.91;;;-140.63;76.49
11302;BME280;5706;50.650;13.380;2023-04-01T19:30:10;90953.63;;;-140.63;76.27
11302;BME280;5706;50.650;13.380;2023-04-01T19:32:53;91011.88;;;-140.63;76.91
11302;BME280;5706;50.650;13.380;2023-04-01T19:35:36;90951.59;;;-140.63;76.87
11302;BME280;5706;50.650;13.380;2023-04-01T19:38:15;91044.00;;;-140.63;77.03
11302;BME280;5706;50.650;13.380;2023-04-01T19:40:55;91017.88;;;-140.63;76.60
11302;BME280;5706;50.650;13.380;2023-04-01T19:43:43;90999.81;;;-140.63;76.77
11302;BME280;5706;50.650;13.380;2023-04-01T19:46:27;90981.72;;;-140.63;76.97
11302;BME280;5706;50.650;13.380;2023-04-01T19:49:12;91033.97;;;-140.63;77.88
11302;BME280;5706;50.650;13.380;2023-04-01T19:51:53;90977.72;;;-140.63;77.47
11302;BME280;5706;50.650;13.380;2023-04-01T19:54:33;91017.88;;;-140.63;77.95
11302;BME280;5706;50.650;13.380;2023-04-01T19:57:16;90985.75;;;-140.63;77.92
11302;BME280;5706;50.650;13.380;2023-04-01T19:59:53;91023.91;;;-140.63;77.43
11302;BME280;5706;50.650;13.380;2023-04-01T20:02:34;91015.88;;;-140.63;77.44
11302;BME280;5706;50.650;13.380;2023-04-01T20:05:33;91048.00;;;-140.63;77.44
11302;BME280;5706;50.650;13.380;2023-04-01T20:08:18;91046.00;;;-140.63;78.08
11302;BME280;5706;50.650;13.380;2023-04-01T20:11:00;91046.00;;;-140.63;75.52
11302;BME280;5706;50.650;13.380;2023-04-01T20:13:46;91046.00;;;-140.63;74.51
11302;BME280;5706;50.650;13.380;2023-04-01T20:16:39;91035.97;;;-140.63;74.74
11302;BME280;5706;50.650;13.380;2023-04-01T20:19:33;91035.97;;;-140.63;74.57
11302;BME280;5706;50.650;13.380;2023-04-01T20:22:15;91042.00;;;-140.63;74.24
11302;BME280;5706;50.650;13.380;2023-04-01T20:24:53;91066.09;;;-140.63;74.90
11302;BME280;5706;50.650;13.380;2023-04-01T20:27:30;91046.00;;;-140.63;74.61
11302;BME280;5706;50.650;13.380;2023-04-01T20:34:25;91021.91;;;-140.63;74.21
11302;BME280;5706;50.650;13.380;2023-04-01T20:37:10;91084.16;;;-140.63;74.58
11302;BME280;5706;50.650;13.380;2023-04-01T20:40:05;91104.25;;;-140.63;74.11
11302;BME280;5706;50.650;13.380;2023-04-01T20:43:17;91094.22;;;-140.63;75.11
11302;BME280;5706;50.650;13.380;2023-04-01T20:45:57;91090.19;;;-140.63;74.87
